Terminal Aerodrome Forecast
Issued by NWS Burlington, VT

Home | Current Version | Previous Version | Text Only | Print | Product List | Glossary On
Versions: 1 2 3 4 5 6 7 8 9 10 11 12 13 14
000
FTUS41 KBTV 041233 AAA
TAFBTV
TAF AMD
KBTV 041233Z 0413/0512 19014G20KT P6SM FEW100 FEW250
     FM041800 19015G25KT P6SM FEW070 SCT200
     FM050100 20014KT P6SM OVC080
     FM050400 23012KT 6SM -RA OVC040=

USA.gov is the U.S. government's official web portal to all federal, state and local government web resources and services.